sensor_id;sensor_type;location;lat;lon;timestamp;temperature;humidity
78522;SHT31;67819;51.972;5.678;2023-09-19T00:00:48;13.8;90.1
78522;SHT31;67819;51.972;5.678;2023-09-19T00:03:17;13.8;90.2
78522;SHT31;67819;51.972;5.678;2023-09-19T00:05:46;13.9;90.3
78522;SHT31;67819;51.972;5.678;2023-09-19T00:08:16;13.9;90.3
78522;SHT31;67819;51.972;5.678;2023-09-19T00:10:48;13.9;90.4
78522;SHT31;67819;51.972;5.678;2023-09-19T00:13:17;13.9;90.3
78522;SHT31;67819;51.972;5.678;2023-09-19T00:15:47;13.9;90.4
78522;SHT31;67819;51.972;5.678;2023-09-19T00:18:17;14.0;90.3
78522;SHT31;67819;51.972;5.678;2023-09-19T00:20:48;14.0;90.2
78522;SHT31;67819;51.972;5.678;2023-09-19T00:23:17;14.0;90.2
78522;SHT31;67819;51.972;5.678;2023-09-19T00:25:46;14.0;90.3
78522;SHT31;67819;51.972;5.678;2023-09-19T00:28:14;14.0;90.5
78522;SHT31;67819;51.972;5.678;2023-09-19T00:30:44;14.1;90.5
78522;SHT31;67819;51.972;5.678;2023-09-19T00:33:18;14.1;90.5
78522;SHT31;67819;51.972;5.678;2023-09-19T00:35:51;14.1;90.6
78522;SHT31;67819;51.972;5.678;2023-09-19T00:38:21;14.1;90.6
78522;SHT31;67819;51.972;5.678;2023-09-19T00:40:54;14.1;90.6
78522;SHT31;67819;51.972;5.678;2023-09-19T00:43:25;14.2;90.5
78522;SHT31;67819;51.972;5.678;2023-09-19T00:45:56;14.2;90.5
78522;SHT31;67819;51.972;5.678;2023-09-19T00:48:27;14.2;90.6
78522;SHT31;67819;51.972;5.678;2023-09-19T00:50:57;14.2;90.7
78522;SHT31;67819;51.972;5.678;2023-09-19T00:53:30;14.2;90.8
78522;SHT31;67819;51.972;5.678;2023-09-19T00:56:00;14.2;90.8
78522;SHT31;67819;51.972;5.678;2023-09-19T00:58:31;14.2;90.7
78522;SHT31;67819;51.972;5.678;2023-09-19T01:01:02;14.2;90.7
78522;SHT31;67819;51.972;5.678;2023-09-19T01:03:33;14.2;90.7
78522;SHT31;67819;51.972;5.678;2023-09-19T01:06:02;14.2;90.8
78522;SHT31;67819;51.972;5.678;2023-09-19T01:08:30;14.2;90.7
78522;SHT31;67819;51.972;5.678;2023-09-19T01:11:09;14.2;90.7
78522;SHT31;67819;51.972;5.678;2023-09-19T01:13:50;14.2;90.7
78522;SHT31;67819;51.972;5.678;2023-09-19T01:16:35;14.2;90.8
78522;SHT31;67819;51.972;5.678;2023-09-19T01:19:23;14.2;90.8
78522;SHT31;67819;51.972;5.678;2023-09-19T01:22:07;14.2;90.7
78522;SHT31;67819;51.972;5.678;2023-09-19T01:24:50;14.2;90.7
78522;SHT31;67819;51.972;5.678;2023-09-19T01:27:40;14.2;90.8
78522;SHT31;67819;51.972;5.678;2023-09-19T01:30:14;14.2;90.7
78522;SHT31;67819;51.972;5.678;2023-09-19T01:32:43;14.2;90.6
78522;SHT31;67819;51.972;5.678;2023-09-19T01:35:14;14.2;90.6
78522;SHT31;67819;51.972;5.678;2023-09-19T01:37:45;14.2;90.6
78522;SHT31;67819;51.972;5.678;2023-09-19T01:40:17;14.2;90.5
78522;SHT31;67819;51.972;5.678;2023-09-19T01:42:57;14.2;90.3
78522;SHT31;67819;51.972;5.678;2023-09-19T01:45:37;14.2;89.7
78522;SHT31;67819;51.972;5.678;2023-09-19T01:48:19;14.2;89.5
78522;SHT31;67819;51.972;5.678;2023-09-19T01:50:58;14.2;89.3
78522;SHT31;67819;51.972;5.678;2023-09-19T01:53:34;14.2;88.9
78522;SHT31;67819;51.972;5.678;2023-09-19T01:56:05;14.2;88.4
78522;SHT31;67819;51.972;5.678;2023-09-19T01:58:45;14.2;88.0
78522;SHT31;67819;51.972;5.678;2023-09-19T02:01:20;14.2;87.7
78522;SHT31;67819;51.972;5.678;2023-09-19T02:03:52;14.1;87.4
78522;SHT31;67819;51.972;5.678;2023-09-19T02:06:23;14.1;87.4
78522;SHT31;67819;51.972;5.678;2023-09-19T02:08:53;14.1;87.2
78522;SHT31;67819;51.972;5.678;2023-09-19T02:11:22;14.0;87.2
78522;SHT31;67819;51.972;5.678;2023-09-19T02:13:51;14.0;87.3
78522;SHT31;67819;51.972;5.678;2023-09-19T02:16:21;13.9;87.1
78522;SHT31;67819;51.972;5.678;2023-09-19T02:18:50;13.9;87.1
78522;SHT31;67819;51.972;5.678;2023-09-19T02:21:18;13.9;87.0
78522;SHT31;67819;51.972;5.678;2023-09-19T02:23:50;13.8;86.9
78522;SHT31;67819;51.972;5.678;2023-09-19T02:26:18;13.8;86.6
78522;SHT31;67819;51.972;5.678;2023-09-19T02:28:47;13.8;86.4
78522;SHT31;67819;51.972;5.678;2023-09-19T02:31:15;13.7;86.3
78522;SHT31;67819;51.972;5.678;2023-09-19T02:33:44;13.7;86.3
78522;SHT31;67819;51.972;5.678;2023-09-19T02:36:13;13.7;86.3
78522;SHT31;67819;51.972;5.678;2023-09-19T02:38:43;13.6;86.3
78522;SHT31;67819;51.972;5.678;2023-09-19T02:41:12;13.6;86.1
78522;SHT31;67819;51.972;5.678;2023-09-19T02:43:41;13.6;86.1
78522;SHT31;67819;51.972;5.678;2023-09-19T02:46:09;13.6;86.1
78522;SHT31;67819;51.972;5.678;2023-09-19T02:48:39;13.5;86.2
78522;SHT31;67819;51.972;5.678;2023-09-19T02:51:08;13.5;86.1
78522;SHT31;67819;51.972;5.678;2023-09-19T02:53:37;13.5;86.1
78522;SHT31;67819;51.972;5.678;2023-09-19T02:56:06;13.4;85.8
78522;SHT31;67819;51.972;5.678;2023-09-19T02:58:36;13.4;85.8
78522;SHT31;67819;51.972;5.678;2023-09-19T03:01:10;13.4;85.6
78522;SHT31;67819;51.972;5.678;2023-09-19T03:03:39;13.4;85.7
78522;SHT31;67819;51.972;5.678;2023-09-19T03:06:08;13.4;85.6
78522;SHT31;67819;51.972;5.678;2023-09-19T03:08:37;13.3;85.3
78522;SHT31;67819;51.972;5.678;2023-09-19T03:11:06;13.3;85.0
78522;SHT31;67819;51.972;5.678;2023-09-19T03:13:37;13.3;84.9
78522;SHT31;67819;51.972;5.678;2023-09-19T03:16:06;13.3;85.1
78522;SHT31;67819;51.972;5.678;2023-09-19T03:18:35;13.3;85.2
78522;SHT31;67819;51.972;5.678;2023-09-19T03:21:04;13.3;85.3
78522;SHT31;67819;51.972;5.678;2023-09-19T03:23:33;13.3;85.2
78522;SHT31;67819;51.972;5.678;2023-09-19T03:26:03;13.2;84.9
78522;SHT31;67819;51.972;5.678;2023-09-19T03:28:33;13.2;84.6
78522;SHT31;67819;51.972;5.678;2023-09-19T03:31:04;13.2;84.3
78522;SHT31;67819;51.972;5.678;2023-09-19T03:33:33;13.2;84.0
78522;SHT31;67819;51.972;5.678;2023-09-19T03:36:03;13.1;83.8
78522;SHT31;67819;51.972;5.678;2023-09-19T03:38:34;13.1;83.4
78522;SHT31;67819;51.972;5.678;2023-09-19T03:41:03;13.1;83.2
78522;SHT31;67819;51.972;5.678;2023-09-19T03:43:32;13.1;83.2
78522;SHT31;67819;51.972;5.678;2023-09-19T03:46:03;13.0;83.0
78522;SHT31;67819;51.972;5.678;2023-09-19T03:48:34;13.0;82.8
78522;SHT31;67819;51.972;5.678;2023-09-19T03:51:02;13.0;82.7
78522;SHT31;67819;51.972;5.678;2023-09-19T03:53:31;13.0;82.9
78522;SHT31;67819;51.972;5.678;2023-09-19T03:55:59;12.9;83.0
78522;SHT31;67819;51.972;5.678;2023-09-19T03:58:29;12.9;83.1
78522;SHT31;67819;51.972;5.678;2023-09-19T04:00:58;12.9;83.0
78522;SHT31;67819;51.972;5.678;2023-09-19T04:03:27;12.9;82.9
78522;SHT31;67819;51.972;5.678;2023-09-19T04:06:00;12.9;82.8
78522;SHT31;67819;51.972;5.678;2023-09-19T04:08:29;12.8;83.0
78522;SHT31;67819;51.972;5.678;2023-09-19T04:10:58;12.8;83.1
78522;SHT31;67819;51.972;5.678;2023-09-19T04:13:27;12.8;82.9
78522;SHT31;67819;51.972;5.678;2023-09-19T04:15:56;12.8;82.9
78522;SHT31;67819;51.972;5.678;2023-09-19T04:18:25;12.8;82.7
78522;SHT31;67819;51.972;5.678;2023-09-19T04:20:53;12.8;82.4
78522;SHT31;67819;51.972;5.678;2023-09-19T04:23:22;12.7;82.4
78522;SHT31;67819;51.972;5.678;2023-09-19T04:25:51;12.7;82.4
78522;SHT31;67819;51.972;5.678;2023-09-19T04:28:20;12.7;82.4
78522;SHT31;67819;51.972;5.678;2023-09-19T04:30:49;12.7;82.3
78522;SHT31;67819;51.972;5.678;2023-09-19T04:33:18;12.7;82.3
78522;SHT31;67819;51.972;5.678;2023-09-19T04:35:49;12.6;82.4
78522;SHT31;67819;51.972;5.678;2023-09-19T04:38:17;12.6;82.4
78522;SHT31;67819;51.972;5.678;2023-09-19T04:40:46;12.6;82.5
78522;SHT31;67819;51.972;5.678;2023-09-19T04:43:17;12.6;82.6
78522;SHT31;67819;51.972;5.678;2023-09-19T04:45:45;12.6;82.7
78522;SHT31;67819;51.972;5.678;2023-09-19T04:48:17;12.6;82.7
78522;SHT31;67819;51.972;5.678;2023-09-19T04:50:48;12.6;82.6
78522;SHT31;67819;51.972;5.678;2023-09-19T04:53:17;12.6;82.7
78522;SHT31;67819;51.972;5.678;2023-09-19T04:55:49;12.6;82.8
78522;SHT31;67819;51.972;5.678;2023-09-19T04:58:20;12.6;82.9
78522;SHT31;67819;51.972;5.678;2023-09-19T05:00:49;12.6;82.9
78522;SHT31;67819;51.972;5.678;2023-09-19T05:03:19;12.6;83.0
78522;SHT31;67819;51.972;5.678;2023-09-19T05:05:48;12.6;83.2
78522;SHT31;67819;51.972;5.678;2023-09-19T05:08:17;12.6;83.2
78522;SHT31;67819;51.972;5.678;2023-09-19T05:10:45;12.6;83.3
78522;SHT31;67819;51.972;5.678;2023-09-19T05:13:15;12.6;83.3
78522;SHT31;67819;51.972;5.678;2023-09-19T05:15:43;12.6;83.2
78522;SHT31;67819;51.972;5.678;2023-09-19T05:18:12;12.6;83.2
78522;SHT31;67819;51.972;5.678;2023-09-19T05:20:40;12.6;83.3
78522;SHT31;67819;51.972;5.678;2023-09-19T05:23:09;12.6;83.3
78522;SHT31;67819;51.972;5.678;2023-09-19T05:25:39;12.6;83.4
78522;SHT31;67819;51.972;5.678;2023-09-19T05:28:10;12.6;83.5
78522;SHT31;67819;51.972;5.678;2023-09-19T05:30:43;12.6;83.6
78522;SHT31;67819;51.972;5.678;2023-09-19T05:33:12;12.6;83.6
78522;SHT31;67819;51.972;5.678;2023-09-19T05:35:41;12.6;83.7
78522;SHT31;67819;51.972;5.678;2023-09-19T05:38:09;12.7;83.7
78522;SHT31;67819;51.972;5.678;2023-09-19T05:40:41;12.7;83.7
78522;SHT31;67819;51.972;5.678;2023-09-19T05:43:12;12.7;83.7
78522;SHT31;67819;51.972;5.678;2023-09-19T05:45:41;12.7;83.8
78522;SHT31;67819;51.972;5.678;2023-09-19T05:48:13;12.7;83.8
78522;SHT31;67819;51.972;5.678;2023-09-19T05:50:43;12.7;83.7
78522;SHT31;67819;51.972;5.678;2023-09-19T05:53:15;12.7;83.9
78522;SHT31;67819;51.972;5.678;2023-09-19T05:55:45;12.7;84.0
78522;SHT31;67819;51.972;5.678;2023-09-19T05:58:13;12.7;84.0
78522;SHT31;67819;51.972;5.678;2023-09-19T06:00:43;12.8;84.0
78522;SHT31;67819;51.972;5.678;2023-09-19T06:03:15;12.8;84.1
78522;SHT31;67819;51.972;5.678;2023-09-19T06:05:45;12.8;84.2
78522;SHT31;67819;51.972;5.678;2023-09-19T06:08:15;12.8;84.3
78522;SHT31;67819;51.972;5.678;2023-09-19T06:10:44;12.8;84.5
78522;SHT31;67819;51.972;5.678;2023-09-19T06:13:15;12.8;84.5
78522;SHT31;67819;51.972;5.678;2023-09-19T06:15:45;12.9;84.5
78522;SHT31;67819;51.972;5.678;2023-09-19T06:18:14;12.9;84.7
78522;SHT31;67819;51.972;5.678;2023-09-19T06:20:46;12.9;84.7
78522;SHT31;67819;51.972;5.678;2023-09-19T06:23:15;12.9;84.8
78522;SHT31;67819;51.972;5.678;2023-09-19T06:25:43;12.9;84.9
78522;SHT31;67819;51.972;5.678;2023-09-19T06:28:12;13.0;84.9
78522;SHT31;67819;51.972;5.678;2023-09-19T06:30:45;13.0;85.0
78522;SHT31;67819;51.972;5.678;2023-09-19T06:33:14;13.0;85.1
78522;SHT31;67819;51.972;5.678;2023-09-19T06:35:43;13.0;85.1
78522;SHT31;67819;51.972;5.678;2023-09-19T06:38:14;13.1;85.1
78522;SHT31;67819;51.972;5.678;2023-09-19T06:40:45;13.1;85.2
78522;SHT31;67819;51.972;5.678;2023-09-19T06:43:14;13.1;85.3
78522;SHT31;67819;51.972;5.678;2023-09-19T06:45:45;13.2;85.4
78522;SHT31;67819;51.972;5.678;2023-09-19T06:48:15;13.2;85.4
78522;SHT31;67819;51.972;5.678;2023-09-19T06:50:44;13.2;85.4
78522;SHT31;67819;51.972;5.678;2023-09-19T06:53:14;13.3;85.4
78522;SHT31;67819;51.972;5.678;2023-09-19T06:55:43;13.3;85.5
78522;SHT31;67819;51.972;5.678;2023-09-19T06:58:14;13.3;85.5
78522;SHT31;67819;51.972;5.678;2023-09-19T07:00:43;13.3;85.6
78522;SHT31;67819;51.972;5.678;2023-09-19T07:03:13;13.4;85.5
78522;SHT31;67819;51.972;5.678;2023-09-19T07:05:48;13.4;85.5
78522;SHT31;67819;51.972;5.678;2023-09-19T07:08:18;13.4;85.5
78522;SHT31;67819;51.972;5.678;2023-09-19T07:10:47;13.5;85.6
78522;SHT31;67819;51.972;5.678;2023-09-19T07:13:19;13.5;85.5
78522;SHT31;67819;51.972;5.678;2023-09-19T07:15:47;13.5;85.4
78522;SHT31;67819;51.972;5.678;2023-09-19T07:18:17;13.6;85.4
78522;SHT31;67819;51.972;5.678;2023-09-19T07:20:46;13.6;85.3
78522;SHT31;67819;51.972;5.678;2023-09-19T07:23:18;13.6;85.2
78522;SHT31;67819;51.972;5.678;2023-09-19T07:25:50;13.6;85.4
78522;SHT31;67819;51.972;5.678;2023-09-19T07:28:19;13.7;85.4
78522;SHT31;67819;51.972;5.678;2023-09-19T07:30:48;13.7;85.3
78522;SHT31;67819;51.972;5.678;2023-09-19T07:33:16;13.8;85.2
78522;SHT31;67819;51.972;5.678;2023-09-19T07:35:47;13.8;85.1
78522;SHT31;67819;51.972;5.678;2023-09-19T07:38:16;13.8;84.9
78522;SHT31;67819;51.972;5.678;2023-09-19T07:40:45;13.9;84.7
78522;SHT31;67819;51.972;5.678;2023-09-19T07:43:15;13.9;84.8
78522;SHT31;67819;51.972;5.678;2023-09-19T07:45:44;13.9;84.7
78522;SHT31;67819;51.972;5.678;2023-09-19T07:48:13;14.0;84.4
78522;SHT31;67819;51.972;5.678;2023-09-19T07:50:44;14.0;84.2
78522;SHT31;67819;51.972;5.678;2023-09-19T07:53:13;14.0;84.2
78522;SHT31;67819;51.972;5.678;2023-09-19T07:55:44;14.1;84.1
78522;SHT31;67819;51.972;5.678;2023-09-19T07:58:14;14.1;84.2
78522;SHT31;67819;51.972;5.678;2023-09-19T08:00:42;14.1;84.3
78522;SHT31;67819;51.972;5.678;2023-09-19T08:03:12;14.2;84.1
78522;SHT31;67819;51.972;5.678;2023-09-19T08:05:41;14.2;84.2
78522;SHT31;67819;51.972;5.678;2023-09-19T08:08:10;14.3;84.0
78522;SHT31;67819;51.972;5.678;2023-09-19T08:10:41;14.3;83.8
78522;SHT31;67819;51.972;5.678;2023-09-19T08:13:12;14.3;84.0
78522;SHT31;67819;51.972;5.678;2023-09-19T08:15:45;14.4;83.7
78522;SHT31;67819;51.972;5.678;2023-09-19T08:18:14;14.4;83.5
78522;SHT31;67819;51.972;5.678;2023-09-19T08:20:43;14.5;83.7
78522;SHT31;67819;51.972;5.678;2023-09-19T08:23:12;14.5;83.7
78522;SHT31;67819;51.972;5.678;2023-09-19T08:25:41;14.6;83.7
78522;SHT31;67819;51.972;5.678;2023-09-19T08:28:10;14.7;83.6
78522;SHT31;67819;51.972;5.678;2023-09-19T08:30:40;14.7;83.3
78522;SHT31;67819;51.972;5.678;2023-09-19T08:33:09;14.8;83.3
78522;SHT31;67819;51.972;5.678;2023-09-19T08:35:37;14.8;83.1
78522;SHT31;67819;51.972;5.678;2023-09-19T08:38:08;14.9;82.3
78522;SHT31;67819;51.972;5.678;2023-09-19T08:40:38;14.9;82.3
78522;SHT31;67819;51.972;5.678;2023-09-19T08:43:09;15.0;82.6
78522;SHT31;67819;51.972;5.678;2023-09-19T08:45:37;15.0;82.7
78522;SHT31;67819;51.972;5.678;2023-09-19T08:48:23;15.1;82.5
78522;SHT31;67819;51.972;5.678;2023-09-19T08:50:57;15.1;82.0
78522;SHT31;67819;51.972;5.678;2023-09-19T08:53:41;15.2;81.8
78522;SHT31;67819;51.972;5.678;2023-09-19T08:56:13;15.2;81.4
78522;SHT31;67819;51.972;5.678;2023-09-19T08:58:50;15.2;81.2
78522;SHT31;67819;51.972;5.678;2023-09-19T09:01:21;15.3;80.9
78522;SHT31;67819;51.972;5.678;2023-09-19T09:03:54;15.3;81.3
78522;SHT31;67819;51.972;5.678;2023-09-19T09:06:25;15.3;81.4
78522;SHT31;67819;51.972;5.678;2023-09-19T09:08:55;15.4;81.2
78522;SHT31;67819;51.972;5.678;2023-09-19T09:11:27;15.4;81.1
78522;SHT31;67819;51.972;5.678;2023-09-19T09:13:56;15.5;81.0
78522;SHT31;67819;51.972;5.678;2023-09-19T09:16:25;15.5;80.5
78522;SHT31;67819;51.972;5.678;2023-09-19T09:18:54;15.6;80.6
78522;SHT31;67819;51.972;5.678;2023-09-19T09:21:25;15.7;80.9
78522;SHT31;67819;51.972;5.678;2023-09-19T09:23:55;15.8;80.4
78522;SHT31;67819;51.972;5.678;2023-09-19T09:26:42;15.9;80.1
78522;SHT31;67819;51.972;5.678;2023-09-19T09:29:11;16.0;80.1
78522;SHT31;67819;51.972;5.678;2023-09-19T09:31:41;16.1;78.8
78522;SHT31;67819;51.972;5.678;2023-09-19T09:34:10;16.2;78.1
78522;SHT31;67819;51.972;5.678;2023-09-19T09:36:41;16.3;76.5
78522;SHT31;67819;51.972;5.678;2023-09-19T09:39:10;16.3;76.4
78522;SHT31;67819;51.972;5.678;2023-09-19T09:41:51;16.4;76.4
78522;SHT31;67819;51.972;5.678;2023-09-19T09:44:19;16.4;76.1
78522;SHT31;67819;51.972;5.678;2023-09-19T09:46:48;16.5;75.9
78522;SHT31;67819;51.972;5.678;2023-09-19T09:49:32;16.6;75.9
78522;SHT31;67819;51.972;5.678;2023-09-19T09:52:03;16.6;76.0
78522;SHT31;67819;51.972;5.678;2023-09-19T09:54:35;16.6;75.5
78522;SHT31;67819;51.972;5.678;2023-09-19T09:57:09;16.7;74.7
78522;SHT31;67819;51.972;5.678;2023-09-19T09:59:49;16.7;74.7
78522;SHT31;67819;51.972;5.678;2023-09-19T10:02:20;16.7;74.7
78522;SHT31;67819;51.972;5.678;2023-09-19T10:04:56;16.7;74.5
78522;SHT31;67819;51.972;5.678;2023-09-19T10:07:34;16.7;74.4
78522;SHT31;67819;51.972;5.678;2023-09-19T10:10:08;16.8;73.5
78522;SHT31;67819;51.972;5.678;2023-09-19T10:12:49;16.8;73.0
78522;SHT31;67819;51.972;5.678;2023-09-19T10:15:26;16.8;73.0
78522;SHT31;67819;51.972;5.678;2023-09-19T10:17:57;16.8;73.6
78522;SHT31;67819;51.972;5.678;2023-09-19T10:20:30;16.8;73.7
78522;SHT31;67819;51.972;5.678;2023-09-19T10:23:07;16.9;73.4
78522;SHT31;67819;51.972;5.678;2023-09-19T10:25:40;16.9;73.3
78522;SHT31;67819;51.972;5.678;2023-09-19T10:28:11;17.0;73.1
78522;SHT31;67819;51.972;5.678;2023-09-19T10:30:42;17.0;73.3
78522;SHT31;67819;51.972;5.678;2023-09-19T10:33:15;17.1;72.6
78522;SHT31;67819;51.972;5.678;2023-09-19T10:35:46;17.1;72.0
78522;SHT31;67819;51.972;5.678;2023-09-19T10:38:19;17.2;72.0
78522;SHT31;67819;51.972;5.678;2023-09-19T10:40:49;17.3;72.5
78522;SHT31;67819;51.972;5.678;2023-09-19T10:43:20;17.3;72.6
78522;SHT31;67819;51.972;5.678;2023-09-19T10:45:50;17.4;72.7
78522;SHT31;67819;51.972;5.678;2023-09-19T10:48:20;17.5;72.4
78522;SHT31;67819;51.972;5.678;2023-09-19T10:50:57;17.6;71.3
78522;SHT31;67819;51.972;5.678;2023-09-19T10:53:42;17.6;71.1
78522;SHT31;67819;51.972;5.678;2023-09-19T10:56:19;17.6;70.6
78522;SHT31;67819;51.972;5.678;2023-09-19T10:58:49;17.7;70.5
78522;SHT31;67819;51.972;5.678;2023-09-19T11:01:18;17.7;70.6
78522;SHT31;67819;51.972;5.678;2023-09-19T11:04:00;17.8;70.2
78522;SHT31;67819;51.972;5.678;2023-09-19T11:06:34;17.8;70.3
78522;SHT31;67819;51.972;5.678;2023-09-19T11:09:04;17.8;70.1
78522;SHT31;67819;51.972;5.678;2023-09-19T11:11:49;17.9;69.6
78522;SHT31;67819;51.972;5.678;2023-09-19T11:16:06;17.9;70.2
78522;SHT31;67819;51.972;5.678;2023-09-19T11:18:53;18.0;69.9
78522;SHT31;67819;51.972;5.678;2023-09-19T11:21:41;18.0;68.9
78522;SHT31;67819;51.972;5.678;2023-09-19T11:24:42;18.1;68.8
78522;SHT31;67819;51.972;5.678;2023-09-19T11:27:14;18.1;68.8
78522;SHT31;67819;51.972;5.678;2023-09-19T11:29:44;18.1;68.9
78522;SHT31;67819;51.972;5.678;2023-09-19T11:32:13;18.2;68.9
78522;SHT31;67819;51.972;5.678;2023-09-19T11:34:48;18.2;68.5
78522;SHT31;67819;51.972;5.678;2023-09-19T11:39:01;18.2;68.9
78522;SHT31;67819;51.972;5.678;2023-09-19T11:41:41;18.3;68.3
78522;SHT31;67819;51.972;5.678;2023-09-19T11:44:35;18.4;68.3
78522;SHT31;67819;51.972;5.678;2023-09-19T11:47:04;18.4;67.7
78522;SHT31;67819;51.972;5.678;2023-09-19T11:49:40;18.5;68.2
78522;SHT31;67819;51.972;5.678;2023-09-19T11:52:10;18.6;67.3
78522;SHT31;67819;51.972;5.678;2023-09-19T11:54:41;18.6;66.8
78522;SHT31;67819;51.972;5.678;2023-09-19T11:57:21;18.7;67.1
78522;SHT31;67819;51.972;5.678;2023-09-19T11:59:51;18.8;67.4
78522;SHT31;67819;51.972;5.678;2023-09-19T12:02:32;18.9;66.8
78522;SHT31;67819;51.972;5.678;2023-09-19T12:05:03;18.9;66.5
78522;SHT31;67819;51.972;5.678;2023-09-19T12:07:43;19.0;66.3
78522;SHT31;67819;51.972;5.678;2023-09-19T12:10:15;19.0;65.6
78522;SHT31;67819;51.972;5.678;2023-09-19T12:12:50;19.0;65.3
78522;SHT31;67819;51.972;5.678;2023-09-19T12:15:25;19.1;64.8
78522;SHT31;67819;51.972;5.678;2023-09-19T12:18:00;19.1;64.7
78522;SHT31;67819;51.972;5.678;2023-09-19T12:20:44;19.1;64.5
78522;SHT31;67819;51.972;5.678;2023-09-19T12:23:14;19.1;63.7
78522;SHT31;67819;51.972;5.678;2023-09-19T12:25:44;19.1;63.5
78522;SHT31;67819;51.972;5.678;2023-09-19T12:28:15;19.1;63.5
78522;SHT31;67819;51.972;5.678;2023-09-19T12:30:44;19.0;62.7
78522;SHT31;67819;51.972;5.678;2023-09-19T12:33:17;18.9;63.0
78522;SHT31;67819;51.972;5.678;2023-09-19T12:35:53;18.9;63.5
78522;SHT31;67819;51.972;5.678;2023-09-19T12:38:26;18.8;63.7
78522;SHT31;67819;51.972;5.678;2023-09-19T12:41:01;18.7;63.8
78522;SHT31;67819;51.972;5.678;2023-09-19T12:43:33;18.6;63.7
78522;SHT31;67819;51.972;5.678;2023-09-19T12:46:03;18.6;63.8
78522;SHT31;67819;51.972;5.678;2023-09-19T12:48:32;18.5;64.0
78522;SHT31;67819;51.972;5.678;2023-09-19T12:51:06;18.5;64.4
78522;SHT31;67819;51.972;5.678;2023-09-19T12:53:38;18.4;64.9
78522;SHT31;67819;51.972;5.678;2023-09-19T12:56:09;18.4;65.1
78522;SHT31;67819;51.972;5.678;2023-09-19T12:58:54;18.4;65.1
78522;SHT31;67819;51.972;5.678;2023-09-19T13:01:26;18.3;65.3
78522;SHT31;67819;51.972;5.678;2023-09-19T13:04:16;18.3;65.7
78522;SHT31;67819;51.972;5.678;2023-09-19T13:06:54;18.2;65.9
78522;SHT31;67819;51.972;5.678;2023-09-19T13:09:27;18.2;66.3
78522;SHT31;67819;51.972;5.678;2023-09-19T13:12:01;18.2;66.1
78522;SHT31;67819;51.972;5.678;2023-09-19T13:14:30;18.2;66.4
78522;SHT31;67819;51.972;5.678;2023-09-19T13:17:05;18.2;66.6
78522;SHT31;67819;51.972;5.678;2023-09-19T13:19:41;18.2;66.7
78522;SHT31;67819;51.972;5.678;2023-09-19T13:22:40;18.2;66.5
78522;SHT31;67819;51.972;5.678;2023-09-19T13:25:14;18.1;66.8
78522;SHT31;67819;51.972;5.678;2023-09-19T13:27:46;18.1;67.1
78522;SHT31;67819;51.972;5.678;2023-09-19T13:30:18;18.1;66.7
78522;SHT31;67819;51.972;5.678;2023-09-19T13:32:48;18.1;66.9
78522;SHT31;67819;51.972;5.678;2023-09-19T13:35:16;18.1;67.0
78522;SHT31;67819;51.972;5.678;2023-09-19T13:37:47;18.1;66.8
78522;SHT31;67819;51.972;5.678;2023-09-19T13:40:18;18.1;66.8
78522;SHT31;67819;51.972;5.678;2023-09-19T13:42:46;18.0;67.1
78522;SHT31;67819;51.972;5.678;2023-09-19T13:45:19;18.0;67.5
78522;SHT31;67819;51.972;5.678;2023-09-19T13:47:50;18.0;67.8
78522;SHT31;67819;51.972;5.678;2023-09-19T13:50:22;18.0;67.9
78522;SHT31;67819;51.972;5.678;2023-09-19T13:52:51;18.0;68.0
78522;SHT31;67819;51.972;5.678;2023-09-19T13:55:21;18.1;68.3
78522;SHT31;67819;51.972;5.678;2023-09-19T13:57:51;18.1;68.3
78522;SHT31;67819;51.972;5.678;2023-09-19T14:00:23;18.1;68.6
78522;SHT31;67819;51.972;5.678;2023-09-19T14:02:52;18.2;68.7
78522;SHT31;67819;51.972;5.678;2023-09-19T14:05:20;18.3;68.2
78522;SHT31;67819;51.972;5.678;2023-09-19T14:07:49;18.4;67.7
78522;SHT31;67819;51.972;5.678;2023-09-19T14:10:18;18.4;67.1
78522;SHT31;67819;51.972;5.678;2023-09-19T14:12:47;18.4;67.2
78522;SHT31;67819;51.972;5.678;2023-09-19T14:15:16;18.5;66.9
78522;SHT31;67819;51.972;5.678;2023-09-19T14:17:44;18.5;66.9
78522;SHT31;67819;51.972;5.678;2023-09-19T14:20:13;18.5;66.8
78522;SHT31;67819;51.972;5.678;2023-09-19T14:22:44;18.5;66.9
78522;SHT31;67819;51.972;5.678;2023-09-19T14:25:12;18.6;67.0
78522;SHT31;67819;51.972;5.678;2023-09-19T14:27:41;18.6;66.9
78522;SHT31;67819;51.972;5.678;2023-09-19T14:30:10;18.6;66.6
78522;SHT31;67819;51.972;5.678;2023-09-19T14:32:39;18.6;66.6
78522;SHT31;67819;51.972;5.678;2023-09-19T14:35:09;18.6;66.7
78522;SHT31;67819;51.972;5.678;2023-09-19T14:37:42;18.6;66.9
78522;SHT31;67819;51.972;5.678;2023-09-19T14:40:14;18.6;67.0
78522;SHT31;67819;51.972;5.678;2023-09-19T14:42:44;18.6;66.9
78522;SHT31;67819;51.972;5.678;2023-09-19T14:45:12;18.5;67.1
78522;SHT31;67819;51.972;5.678;2023-09-19T14:47:46;18.5;66.8
78522;SHT31;67819;51.972;5.678;2023-09-19T14:50:15;18.5;66.9
78522;SHT31;67819;51.972;5.678;2023-09-19T14:52:44;18.5;66.9
78522;SHT31;67819;51.972;5.678;2023-09-19T14:55:12;18.5;66.6
78522;SHT31;67819;51.972;5.678;2023-09-19T14:57:42;18.5;66.6
78522;SHT31;67819;51.972;5.678;2023-09-19T15:00:13;18.4;66.7
78522;SHT31;67819;51.972;5.678;2023-09-19T15:02:42;18.4;66.7
78522;SHT31;67819;51.972;5.678;2023-09-19T15:05:12;18.4;66.7
78522;SHT31;67819;51.972;5.678;2023-09-19T15:07:42;18.4;67.1
78522;SHT31;67819;51.972;5.678;2023-09-19T15:10:13;18.3;67.2
78522;SHT31;67819;51.972;5.678;2023-09-19T15:12:42;18.3;67.2
78522;SHT31;67819;51.972;5.678;2023-09-19T15:15:11;18.3;67.3
78522;SHT31;67819;51.972;5.678;2023-09-19T15:17:40;18.3;67.4
78522;SHT31;67819;51.972;5.678;2023-09-19T15:20:11;18.2;67.4
78522;SHT31;67819;51.972;5.678;2023-09-19T15:22:40;18.2;67.5
78522;SHT31;67819;51.972;5.678;2023-09-19T15:25:10;18.2;67.7
78522;SHT31;67819;51.972;5.678;2023-09-19T15:27:39;18.2;67.8
78522;SHT31;67819;51.972;5.678;2023-09-19T15:30:09;18.1;68.0
78522;SHT31;67819;51.972;5.678;2023-09-19T15:32:38;18.1;68.2
78522;SHT31;67819;51.972;5.678;2023-09-19T15:35:08;18.1;68.4
78522;SHT31;67819;51.972;5.678;2023-09-19T15:37:40;18.1;68.7
78522;SHT31;67819;51.972;5.678;2023-09-19T15:40:09;18.1;68.8
78522;SHT31;67819;51.972;5.678;2023-09-19T15:42:39;18.1;68.8
78522;SHT31;67819;51.972;5.678;2023-09-19T15:45:08;18.1;68.9
78522;SHT31;67819;51.972;5.678;2023-09-19T15:47:37;18.0;68.9
78522;SHT31;67819;51.972;5.678;2023-09-19T15:50:06;18.0;69.0
78522;SHT31;67819;51.972;5.678;2023-09-19T15:52:36;18.0;69.1
78522;SHT31;67819;51.972;5.678;2023-09-19T15:55:05;18.0;69.2
78522;SHT31;67819;51.972;5.678;2023-09-19T15:57:36;18.0;68.9
78522;SHT31;67819;51.972;5.678;2023-09-19T16:00:06;18.0;68.8
78522;SHT31;67819;51.972;5.678;2023-09-19T16:02:40;18.0;68.9
78522;SHT31;67819;51.972;5.678;2023-09-19T16:05:09;18.0;69.1
78522;SHT31;67819;51.972;5.678;2023-09-19T16:07:38;18.0;69.4
78522;SHT31;67819;51.972;5.678;2023-09-19T16:10:08;18.0;69.4
78522;SHT31;67819;51.972;5.678;2023-09-19T16:12:36;18.0;69.5
78522;SHT31;67819;51.972;5.678;2023-09-19T16:15:06;18.0;69.6
78522;SHT31;67819;51.972;5.678;2023-09-19T16:17:37;17.9;69.8
78522;SHT31;67819;51.972;5.678;2023-09-19T16:20:06;17.9;69.8
78522;SHT31;67819;51.972;5.678;2023-09-19T16:22:38;17.9;70.0
78522;SHT31;67819;51.972;5.678;2023-09-19T16:25:10;17.9;70.3
78522;SHT31;67819;51.972;5.678;2023-09-19T16:27:40;17.8;70.3
78522;SHT31;67819;51.972;5.678;2023-09-19T16:30:09;17.8;70.4
78522;SHT31;67819;51.972;5.678;2023-09-19T16:32:38;17.8;70.3